Time;durP1;ratioP1;P1;durP2;ratioP2;P2;SDS_P1;SDS_P2;PMS_P1;PMS_P2;Temp;Humidity;BMP_temperature;BMP_pressure;BME280_temperature;BME280_humidity;BME280_pressure;Samples;Min_cycle;Max_cycle;Signal;HPM_P1;HPM_P2
2022/09/06 00:01:43;;;;;;;;;;;14.90;99.90;;;;;;5086940;28;19924;-57
2022/09/06 00:04:11;;;;;;;;;;;14.90;99.90;;;;;;5087053;28;19939;-56
2022/09/06 00:06:42;;;;;;;;;;;14.90;99.90;;;;;;5087462;28;20461;-57
2022/09/06 00:09:09;;;;;;;;;;;14.90;99.90;;;;;;5085781;28;19932;-57
2022/09/06 00:11:37;;;;;;;;;;;14.80;99.90;;;;;;5076928;28;19924;-56
2022/09/06 00:14:04;;;;;;;;;;;14.80;99.90;;;;;;5072000;28;19928;-57
2022/09/06 00:16:32;;;;;;;;;;;14.80;99.90;;;;;;5068416;28;19936;-57
2022/09/06 00:18:59;;;;;;;;;;;14.80;99.90;;;;;;5090188;28;19927;-57
2022/09/06 00:21:28;;;;;;;;;;;14.80;99.90;;;;;;5101552;28;19931;-57
2022/09/06 00:23:56;;;;;;;;;;;14.80;99.90;;;;;;5084606;28;20358;-57
2022/09/06 00:26:23;;;;;;;;;;;14.70;99.90;;;;;;5072905;28;19932;-57
2022/09/06 00:28:51;;;;;;;;;;;14.80;99.90;;;;;;5080412;28;19925;-56
2022/09/06 00:31:20;;;;;;;;;;;14.70;99.90;;;;;;5079084;28;19948;-56
2022/09/06 00:33:47;;;;;;;;;;;14.70;99.90;;;;;;5093192;28;19923;-56
2022/09/06 00:36:16;;;;;;;;;;;14.70;99.90;;;;;;5112762;28;19932;-56
2022/09/06 00:38:44;;;;;;;;;;;14.70;99.90;;;;;;5112509;28;19927;-56
2022/09/06 00:41:12;;;;;;;;;;;14.60;99.90;;;;;;5088820;28;19923;-58
2022/09/06 00:43:40;;;;;;;;;;;14.70;99.90;;;;;;5102455;28;19924;-56
2022/09/06 00:46:09;;;;;;;;;;;14.60;99.90;;;;;;5090951;28;19931;-56
2022/09/06 00:48:37;;;;;;;;;;;14.60;99.90;;;;;;5092453;28;19931;-56
2022/09/06 00:51:08;;;;;;;;;;;14.60;99.90;;;;;;5092326;28;19928;-57
2022/09/06 00:53:36;;;;;;;;;;;14.60;99.90;;;;;;5092231;28;20401;-57
2022/09/06 00:56:04;;;;;;;;;;;14.60;99.90;;;;;;5089870;28;20372;-58
2022/09/06 00:58:32;;;;;;;;;;;14.60;99.90;;;;;;5092774;28;19935;-56
2022/09/06 01:01:00;;;;;;;;;;;14.60;99.90;;;;;;5081209;28;19931;-57
2022/09/06 01:03:27;;;;;;;;;;;14.60;99.90;;;;;;5083497;28;19924;-57
2022/09/06 01:06:19;;;;;;;;;;;14.50;99.90;;;;;;5108653;28;19924;-57
2022/09/06 01:08:49;;;;;;;;;;;14.50;99.90;;;;;;5085040;28;19924;-57
2022/09/06 01:11:36;;;;;;;;;;;14.50;99.90;;;;;;5075083;28;19924;-57
2022/09/06 01:14:09;;;;;;;;;;;14.50;99.90;;;;;;5085637;28;19935;-57
2022/09/06 01:16:37;;;;;;;;;;;14.50;99.90;;;;;;5070493;28;19924;-57
2022/09/06 01:19:07;;;;;;;;;;;14.50;99.90;;;;;;5086715;28;19931;-57
2022/09/06 01:21:37;;;;;;;;;;;14.50;99.90;;;;;;5091709;28;19923;-56
2022/09/06 01:24:14;;;;;;;;;;;14.50;99.90;;;;;;5079487;28;20079;-56
2022/09/06 01:27:00;;;;;;;;;;;14.50;99.90;;;;;;5071073;28;19936;-57
2022/09/06 01:29:40;;;;;;;;;;;14.40;99.90;;;;;;5074282;28;20380;-57
2022/09/06 01:32:27;;;;;;;;;;;14.40;99.90;;;;;;5076264;28;19947;-57
2022/09/06 01:35:09;;;;;;;;;;;14.40;99.90;;;;;;5070028;28;19924;-57
2022/09/06 01:37:37;;;;;;;;;;;14.40;99.90;;;;;;5074198;28;20388;-56
2022/09/06 01:40:04;;;;;;;;;;;14.40;99.90;;;;;;5094436;28;19924;-57
2022/09/06 01:42:32;;;;;;;;;;;14.40;99.90;;;;;;5084967;28;19947;-57
2022/09/06 01:45:01;;;;;;;;;;;14.40;99.90;;;;;;5074080;28;19924;-57
2022/09/06 01:47:41;;;;;;;;;;;14.40;99.90;;;;;;5080222;28;19931;-57
2022/09/06 01:50:22;;;;;;;;;;;14.30;99.90;;;;;;5077329;28;20347;-57
2022/09/06 01:52:57;;;;;;;;;;;14.30;99.90;;;;;;5074012;28;19924;-57
2022/09/06 01:55:38;;;;;;;;;;;14.30;99.90;;;;;;5073946;28;19925;-56
2022/09/06 01:58:05;;;;;;;;;;;14.30;99.90;;;;;;5072248;28;19931;-57
2022/09/06 02:00:38;;;;;;;;;;;14.30;99.90;;;;;;5073560;28;19932;-57
2022/09/06 02:03:11;;;;;;;;;;;14.20;99.90;;;;;;5075046;28;19924;-56
2022/09/06 02:06:02;;;;;;;;;;;14.20;99.90;;;;;;5073495;28;19925;-56
2022/09/06 02:08:29;;;;;;;;;;;14.20;99.90;;;;;;5070772;28;19925;-57
2022/09/06 02:11:04;;;;;;;;;;;14.10;99.90;;;;;;5076380;28;20338;-56
2022/09/06 02:13:35;;;;;;;;;;;14.10;99.90;;;;;;5073427;28;19959;-57
2022/09/06 02:16:03;;;;;;;;;;;14.10;99.90;;;;;;5073704;28;19924;-57
2022/09/06 02:18:34;;;;;;;;;;;14.10;99.90;;;;;;5074971;28;19924;-56
2022/09/06 02:21:02;;;;;;;;;;;14.10;99.90;;;;;;5076121;28;19925;-57
2022/09/06 02:23:32;;;;;;;;;;;14.00;99.90;;;;;;5093621;28;20287;-57
2022/09/06 02:26:08;;;;;;;;;;;14.00;99.90;;;;;;5093437;28;19931;-57
2022/09/06 02:28:36;;;;;;;;;;;14.00;99.90;;;;;;5092143;28;19931;-57
2022/09/06 02:31:09;;;;;;;;;;;14.00;99.90;;;;;;5073150;28;19931;-57
2022/09/06 02:33:39;;;;;;;;;;;13.90;99.90;;;;;;5074667;28;19928;-57
2022/09/06 02:36:07;;;;;;;;;;;13.90;99.90;;;;;;5071839;28;19929;-57
2022/09/06 02:38:36;;;;;;;;;;;13.90;99.90;;;;;;5073285;28;20430;-57
2022/09/06 02:41:04;;;;;;;;;;;13.80;99.90;;;;;;5073104;28;20291;-57
2022/09/06 02:43:32;;;;;;;;;;;13.90;99.90;;;;;;5072098;28;19931;-57
2022/09/06 02:45:59;;;;;;;;;;;13.90;99.90;;;;;;5072651;28;19924;-57
2022/09/06 02:48:27;;;;;;;;;;;13.80;99.90;;;;;;5072920;28;19935;-57
2022/09/06 02:50:54;;;;;;;;;;;13.80;99.90;;;;;;5073713;28;20380;-57
2022/09/06 02:53:22;;;;;;;;;;;13.80;99.90;;;;;;5072884;28;19925;-57
2022/09/06 02:55:49;;;;;;;;;;;13.80;99.90;;;;;;5075242;28;19925;-57
2022/09/06 02:58:17;;;;;;;;;;;13.80;99.90;;;;;;5072768;28;20402;-57
2022/09/06 03:00:44;;;;;;;;;;;13.80;99.90;;;;;;5072805;28;19925;-56
2022/09/06 03:03:11;;;;;;;;;;;13.80;99.90;;;;;;5072423;28;19932;-56
2022/09/06 03:05:41;;;;;;;;;;;13.70;99.90;;;;;;5081600;28;19932;-57
2022/09/06 03:08:08;;;;;;;;;;;13.70;99.90;;;;;;5076689;28;20277;-57
2022/09/06 03:10:36;;;;;;;;;;;13.70;99.90;;;;;;5074314;28;20403;-57
2022/09/06 03:13:04;;;;;;;;;;;13.70;99.90;;;;;;5096778;28;19952;-57
2022/09/06 03:15:31;;;;;;;;;;;13.70;99.90;;;;;;5074433;28;20372;-57
2022/09/06 03:17:59;;;;;;;;;;;13.70;99.90;;;;;;5071929;28;19948;-57
2022/09/06 03:20:26;;;;;;;;;;;13.70;99.90;;;;;;5092326;28;19925;-57
2022/09/06 03:22:53;;;;;;;;;;;13.80;99.90;;;;;;5087849;28;19944;-56
2022/09/06 03:25:21;;;;;;;;;;;13.80;99.90;;;;;;5090097;28;19932;-56
2022/09/06 03:27:48;;;;;;;;;;;13.80;99.90;;;;;;5088955;28;20300;-57
2022/09/06 03:30:16;;;;;;;;;;;13.80;99.90;;;;;;5091038;28;19950;-57
2022/09/06 03:32:44;;;;;;;;;;;13.90;99.90;;;;;;5084075;28;19925;-58
2022/09/06 03:35:11;;;;;;;;;;;13.90;99.90;;;;;;5072386;28;19935;-57
2022/09/06 03:37:38;;;;;;;;;;;13.90;99.90;;;;;;5073747;28;19931;-56
2022/09/06 03:40:06;;;;;;;;;;;13.90;99.90;;;;;;5071497;28;19932;-57
2022/09/06 03:42:34;;;;;;;;;;;14.00;99.90;;;;;;5107239;28;19924;-58
2022/09/06 03:45:01;;;;;;;;;;;14.00;99.90;;;;;;5112723;28;19924;-57
2022/09/06 03:47:28;;;;;;;;;;;14.10;99.90;;;;;;5084121;28;19931;-57
2022/09/06 03:49:56;;;;;;;;;;;14.10;99.90;;;;;;5072227;28;20412;-58
2022/09/06 03:52:23;;;;;;;;;;;14.20;99.90;;;;;;5071787;28;20307;-57
2022/09/06 03:54:51;;;;;;;;;;;14.20;99.90;;;;;;5071782;28;20292;-57
2022/09/06 03:57:18;;;;;;;;;;;14.30;99.90;;;;;;5071854;28;20441;-57
2022/09/06 03:59:45;;;;;;;;;;;14.30;99.90;;;;;;5072035;28;20295;-57
2022/09/06 04:02:13;;;;;;;;;;;14.30;99.90;;;;;;5071886;28;19955;-56
2022/09/06 04:04:41;;;;;;;;;;;14.40;99.90;;;;;;5070545;28;19925;-57
2022/09/06 04:07:08;;;;;;;;;;;14.40;99.90;;;;;;5070513;28;19928;-57
2022/09/06 04:09:36;;;;;;;;;;;14.50;99.90;;;;;;5074160;28;20556;-57
2022/09/06 04:12:04;;;;;;;;;;;14.50;99.90;;;;;;5098182;28;19924;-57
2022/09/06 04:14:31;;;;;;;;;;;14.60;99.90;;;;;;5094063;28;19925;-57
2022/09/06 04:16:58;;;;;;;;;;;14.60;99.90;;;;;;5071516;28;19928;-57
2022/09/06 04:19:26;;;;;;;;;;;14.60;99.90;;;;;;5070468;28;19932;-57
2022/09/06 04:21:53;;;;;;;;;;;14.60;99.90;;;;;;5071257;28;19925;-56
2022/09/06 04:24:21;;;;;;;;;;;14.70;99.90;;;;;;5087091;28;19924;-57
2022/09/06 04:26:48;;;;;;;;;;;14.70;99.90;;;;;;5071009;28;20011;-56
2022/09/06 04:29:16;;;;;;;;;;;14.70;99.90;;;;;;5071829;28;19925;-57
2022/09/06 04:31:43;;;;;;;;;;;14.70;99.90;;;;;;5071790;28;19924;-57
2022/09/06 04:34:10;;;;;;;;;;;14.80;99.90;;;;;;5071317;28;19925;-57
2022/09/06 04:36:38;;;;;;;;;;;14.80;99.90;;;;;;5071580;28;19928;-57
2022/09/06 04:39:06;;;;;;;;;;;14.80;99.90;;;;;;5071139;28;19932;-57
2022/09/06 04:41:33;;;;;;;;;;;14.80;99.90;;;;;;5097960;28;19924;-57
2022/09/06 04:44:01;;;;;;;;;;;14.80;99.90;;;;;;5111892;28;19931;-57
2022/09/06 04:46:29;;;;;;;;;;;14.80;99.90;;;;;;5089321;28;19928;-56
2022/09/06 04:48:56;;;;;;;;;;;14.80;99.90;;;;;;5068875;28;19928;-57
2022/09/06 04:51:24;;;;;;;;;;;14.80;99.90;;;;;;5068040;28;19924;-57
2022/09/06 04:53:52;;;;;;;;;;;14.80;99.90;;;;;;5068264;28;19924;-57
2022/09/06 04:56:21;;;;;;;;;;;14.80;99.90;;;;;;5066825;28;19947;-57
2022/09/06 04:58:49;;;;;;;;;;;14.80;99.90;;;;;;5096428;28;19928;-57
2022/09/06 05:01:16;;;;;;;;;;;14.80;99.90;;;;;;5067938;28;19924;-57
2022/09/06 05:03:44;;;;;;;;;;;14.80;99.90;;;;;;5066071;28;19924;-57
2022/09/06 05:06:13;;;;;;;;;;;14.80;99.90;;;;;;5065377;28;19947;-56
2022/09/06 05:08:40;;;;;;;;;;;14.80;99.90;;;;;;5099050;28;20131;-56
2022/09/06 05:11:09;;;;;;;;;;;14.80;99.90;;;;;;5108482;28;19928;-56
2022/09/06 05:13:37;;;;;;;;;;;14.80;99.90;;;;;;5098763;28;19925;-56
2022/09/06 05:16:06;;;;;;;;;;;14.80;99.90;;;;;;5088239;28;19931;-57
2022/09/06 05:18:34;;;;;;;;;;;14.80;99.90;;;;;;5081699;28;19935;-56
2022/09/06 05:21:01;;;;;;;;;;;14.80;99.90;;;;;;5070939;28;19936;-56
2022/09/06 05:23:29;;;;;;;;;;;14.90;99.90;;;;;;5080233;28;20636;-56
2022/09/06 05:25:56;;;;;;;;;;;14.80;99.90;;;;;;5081519;28;20402;-56
2022/09/06 05:28:24;;;;;;;;;;;14.90;99.90;;;;;;5080261;28;20311;-56
2022/09/06 05:30:52;;;;;;;;;;;14.80;99.90;;;;;;5088783;28;19931;-57
2022/09/06 05:33:20;;;;;;;;;;;14.80;99.90;;;;;;5080726;28;20426;-56
2022/09/06 05:35:48;;;;;;;;;;;14.80;99.90;;;;;;5071621;28;20411;-56
2022/09/06 05:38:16;;;;;;;;;;;14.80;99.90;;;;;;5082118;28;19928;-57
2022/09/06 05:40:43;;;;;;;;;;;14.80;99.90;;;;;;5093287;28;19932;-56
2022/09/06 05:43:11;;;;;;;;;;;14.80;99.90;;;;;;5104807;28;19924;-56
2022/09/06 05:45:38;;;;;;;;;;;14.70;99.90;;;;;;5082177;28;20303;-57
2022/09/06 05:48:06;;;;;;;;;;;14.80;99.90;;;;;;5076713;28;19928;-56
2022/09/06 05:50:33;;;;;;;;;;;14.80;99.90;;;;;;5071036;28;19935;-57
2022/09/06 05:53:01;;;;;;;;;;;14.70;99.90;;;;;;5078700;28;20302;-56
2022/09/06 05:55:28;;;;;;;;;;;14.80;99.90;;;;;;5092138;28;19931;-56
2022/09/06 05:57:56;;;;;;;;;;;14.80;99.90;;;;;;5087510;28;20239;-57
2022/09/06 06:00:24;;;;;;;;;;;14.80;99.90;;;;;;5086575;28;19924;-56
2022/09/06 06:02:51;;;;;;;;;;;14.80;99.90;;;;;;5077642;28;19944;-56
2022/09/06 06:05:19;;;;;;;;;;;14.90;99.90;;;;;;5086969;28;19928;-56
2022/09/06 06:07:46;;;;;;;;;;;14.90;99.90;;;;;;5082974;28;19924;-56
2022/09/06 06:10:14;;;;;;;;;;;14.90;99.90;;;;;;5087085;28;19924;-56
2022/09/06 06:12:42;;;;;;;;;;;15.00;99.90;;;;;;5089351;28;19924;-56
2022/09/06 06:15:09;;;;;;;;;;;15.00;99.90;;;;;;5077826;28;19929;-56
2022/09/06 06:17:37;;;;;;;;;;;15.10;99.90;;;;;;5057145;28;19931;-57
2022/09/06 06:20:04;;;;;;;;;;;15.10;99.90;;;;;;5082598;28;19925;-57
2022/09/06 06:22:32;;;;;;;;;;;15.10;99.90;;;;;;5073412;28;19924;-56
2022/09/06 06:24:59;;;;;;;;;;;15.20;99.90;;;;;;5084442;28;20375;-57
2022/09/06 06:27:27;;;;;;;;;;;15.20;99.90;;;;;;5071272;28;19931;-57
2022/09/06 06:29:54;;;;;;;;;;;15.20;99.90;;;;;;5084741;28;19928;-56
2022/09/06 06:32:22;;;;;;;;;;;15.30;99.90;;;;;;5074534;28;20272;-57
2022/09/06 06:34:50;;;;;;;;;;;15.30;99.90;;;;;;5076625;28;19924;-56
2022/09/06 06:37:17;;;;;;;;;;;15.30;99.90;;;;;;5073445;28;20485;-57
2022/09/06 06:39:45;;;;;;;;;;;15.30;99.90;;;;;;5069163;28;19935;-62
2022/09/06 06:42:14;;;;;;;;;;;15.40;99.90;;;;;;5090195;28;19928;-58
2022/09/06 06:44:52;;;;;;;;;;;15.40;99.90;;;;;;5091556;28;19923;-56
2022/09/06 06:47:19;;;;;;;;;;;15.40;99.90;;;;;;5101191;28;20298;-56
2022/09/06 06:49:47;;;;;;;;;;;15.40;99.90;;;;;;5069877;28;19925;-57
2022/09/06 06:52:15;;;;;;;;;;;15.40;99.90;;;;;;5069711;28;19932;-56
2022/09/06 06:54:42;;;;;;;;;;;15.40;99.90;;;;;;5105055;28;20375;-57
2022/09/06 06:57:11;;;;;;;;;;;15.50;99.90;;;;;;5094602;28;19928;-57
2022/09/06 06:59:38;;;;;;;;;;;15.50;99.90;;;;;;5068147;28;19931;-57
2022/09/06 07:02:06;;;;;;;;;;;15.50;99.90;;;;;;5085310;28;19927;-57
2022/09/06 07:04:33;;;;;;;;;;;15.50;99.90;;;;;;5073423;28;19947;-57
2022/09/06 07:07:01;;;;;;;;;;;15.50;99.90;;;;;;5065831;28;19932;-57
2022/09/06 07:09:50;;;;;;;;;;;15.50;99.90;;;;;;5087633;28;20287;-57
2022/09/06 07:12:37;;;;;;;;;;;15.50;99.90;;;;;;5071231;28;20387;-57
2022/09/06 07:15:05;;;;;;;;;;;15.60;99.90;;;;;;5067952;28;20299;-57
2022/09/06 07:17:33;;;;;;;;;;;15.60;99.90;;;;;;5085768;28;19924;-57
2022/09/06 07:20:01;;;;;;;;;;;15.60;99.90;;;;;;5081449;28;19928;-57
2022/09/06 07:22:43;;;;;;;;;;;15.70;99.90;;;;;;5088913;28;20078;-57
2022/09/06 07:25:12;;;;;;;;;;;15.70;99.90;;;;;;5089130;28;19924;-57
2022/09/06 07:27:45;;;;;;;;;;;15.70;99.90;;;;;;5088492;28;19951;-57
2022/09/06 07:30:15;;;;;;;;;;;15.70;99.90;;;;;;5084516;28;20380;-57
2022/09/06 07:32:42;;;;;;;;;;;15.80;99.90;;;;;;5072890;28;19939;-57
2022/09/06 07:35:12;;;;;;;;;;;15.80;99.90;;;;;;5102161;28;20311;-57
2022/09/06 07:37:40;;;;;;;;;;;15.90;99.90;;;;;;5081250;28;19943;-57
2022/09/06 07:40:08;;;;;;;;;;;15.90;99.90;;;;;;5089302;28;20023;-57
2022/09/06 07:42:36;;;;;;;;;;;15.90;99.90;;;;;;5077168;28;19929;-57
2022/09/06 07:45:04;;;;;;;;;;;15.90;99.90;;;;;;5105355;28;19923;-57
2022/09/06 07:47:32;;;;;;;;;;;15.90;99.90;;;;;;5086877;28;19931;-57
2022/09/06 07:50:20;;;;;;;;;;;15.90;99.90;;;;;;5073451;28;19932;-57
2022/09/06 07:53:08;;;;;;;;;;;15.90;99.90;;;;;;5083099;28;19924;-57
2022/09/06 07:55:42;;;;;;;;;;;15.90;99.90;;;;;;5077862;28;19924;-57
2022/09/06 07:58:09;;;;;;;;;;;15.90;99.90;;;;;;5080410;28;19939;-57
2022/09/06 08:00:39;;;;;;;;;;;15.90;99.90;;;;;;5067857;28;19935;-57
2022/09/06 08:03:07;;;;;;;;;;;15.90;99.90;;;;;;5081838;28;19924;-57
2022/09/06 08:05:35;;;;;;;;;;;15.90;99.90;;;;;;5074534;28;19928;-57
2022/09/06 08:08:24;;;;;;;;;;;15.90;99.90;;;;;;5088285;28;19928;-57
2022/09/06 08:11:12;;;;;;;;;;;15.90;99.90;;;;;;5094487;28;19924;-57
2022/09/06 08:13:40;;;;;;;;;;;15.90;99.90;;;;;;5098629;28;19935;-57
2022/09/06 08:16:08;;;;;;;;;;;15.90;99.90;;;;;;5078199;28;19924;-58
2022/09/06 08:18:36;;;;;;;;;;;15.90;99.90;;;;;;5074855;28;19931;-57
2022/09/06 08:21:04;;;;;;;;;;;15.90;99.90;;;;;;5069460;28;20253;-57
2022/09/06 08:23:41;;;;;;;;;;;15.90;99.90;;;;;;5084726;28;19924;-57
2022/09/06 08:26:09;;;;;;;;;;;15.90;99.90;;;;;;5069413;28;21636;-57
2022/09/06 08:28:36;;;;;;;;;;;15.90;99.90;;;;;;5082634;28;19947;-58
2022/09/06 08:31:08;;;;;;;;;;;15.90;99.90;;;;;;5086295;28;19935;-57
2022/09/06 08:33:36;;;;;;;;;;;16.00;99.90;;;;;;5096122;28;19924;-57
2022/09/06 08:36:04;;;;;;;;;;;16.00;99.90;;;;;;5093466;28;19928;-57
2022/09/06 08:38:32;;;;;;;;;;;16.00;99.90;;;;;;5080790;28;19931;-57
2022/09/06 08:41:09;;;;;;;;;;;16.00;99.90;;;;;;5069474;28;19939;-56
2022/09/06 08:43:37;;;;;;;;;;;16.00;99.90;;;;;;5083716;28;20426;-56
2022/09/06 08:46:05;;;;;;;;;;;16.00;99.90;;;;;;5092245;28;19924;-57
2022/09/06 08:48:37;;;;;;;;;;;16.00;99.90;;;;;;5112327;28;19930;-56
2022/09/06 08:51:28;;;;;;;;;;;16.00;99.90;;;;;;5097469;28;20540;-57
2022/09/06 08:53:59;;;;;;;;;;;16.10;99.90;;;;;;5078911;28;19932;-58
2022/09/06 08:56:33;;;;;;;;;;;16.10;99.90;;;;;;5080009;28;19924;-58
2022/09/06 08:59:05;;;;;;;;;;;16.10;99.90;;;;;;5088522;28;20283;-58
2022/09/06 09:01:46;;;;;;;;;;;16.20;99.90;;;;;;5080051;28;19924;-57
2022/09/06 09:04:15;;;;;;;;;;;16.30;99.90;;;;;;5104791;28;19954;-57
2022/09/06 09:06:44;;;;;;;;;;;16.30;99.90;;;;;;5075060;28;20411;-57
2022/09/06 09:09:13;;;;;;;;;;;16.50;99.90;;;;;;5090167;28;19928;-57
2022/09/06 09:11:42;;;;;;;;;;;16.60;99.90;;;;;;5101770;28;20299;-57
2022/09/06 09:14:19;;;;;;;;;;;16.70;99.90;;;;;;5098100;28;20302;-57
2022/09/06 09:16:54;;;;;;;;;;;16.80;99.90;;;;;;5087645;28;19924;-57
2022/09/06 09:19:22;;;;;;;;;;;16.90;99.90;;;;;;5087121;28;19924;-57
2022/09/06 09:21:49;;;;;;;;;;;17.00;99.90;;;;;;5079259;28;20399;-58
2022/09/06 09:24:17;;;;;;;;;;;17.00;99.90;;;;;;5083625;28;20421;-56
2022/09/06 09:26:50;;;;;;;;;;;17.10;99.90;;;;;;5093490;28;19932;-58
2022/09/06 09:29:18;;;;;;;;;;;17.10;99.90;;;;;;5069993;28;19924;-61
2022/09/06 09:31:53;;;;;;;;;;;17.10;99.90;;;;;;5088101;28;19931;-61
2022/09/06 09:34:27;;;;;;;;;;;17.10;99.90;;;;;;5087774;28;20307;-57
2022/09/06 09:37:13;;;;;;;;;;;17.10;99.90;;;;;;5084164;28;19924;-56
2022/09/06 09:40:02;;;;;;;;;;;17.20;99.90;;;;;;5077302;28;19928;-56
2022/09/06 09:42:31;;;;;;;;;;;17.30;99.90;;;;;;5107710;28;19928;-57
2022/09/06 09:45:00;;;;;;;;;;;17.30;99.90;;;;;;5092048;28;19931;-56
2022/09/06 09:47:32;;;;;;;;;;;17.40;99.90;;;;;;5090780;28;19931;-57
2022/09/06 09:49:59;;;;;;;;;;;17.40;99.90;;;;;;5090911;28;19951;-57
2022/09/06 09:52:28;;;;;;;;;;;17.50;99.90;;;;;;5089086;28;20002;-57
2022/09/06 09:54:57;;;;;;;;;;;17.50;99.90;;;;;;5086368;28;19939;-56
2022/09/06 09:57:24;;;;;;;;;;;17.50;99.90;;;;;;5078801;28;19924;-56
2022/09/06 09:59:53;;;;;;;;;;;17.50;99.90;;;;;;5091059;28;19924;-56
2022/09/06 10:02:20;;;;;;;;;;;17.50;99.90;;;;;;5090664;28;19924;-57
2022/09/06 10:04:49;;;;;;;;;;;17.60;99.90;;;;;;5077701;28;19924;-56
2022/09/06 10:07:18;;;;;;;;;;;17.60;99.90;;;;;;5073401;28;20402;-57
2022/09/06 10:09:55;;;;;;;;;;;17.80;99.90;;;;;;5090179;28;19931;-57
2022/09/06 10:12:28;;;;;;;;;;;17.90;99.90;;;;;;5091423;28;19925;-57
2022/09/06 10:14:56;;;;;;;;;;;18.10;99.90;;;;;;5077835;28;19931;-57
2022/09/06 10:17:27;;;;;;;;;;;18.20;99.90;;;;;;5086930;28;19943;-57
2022/09/06 10:19:55;;;;;;;;;;;18.30;99.90;;;;;;5082350;28;19948;-57
2022/09/06 10:22:41;;;;;;;;;;;18.30;99.90;;;;;;5083257;28;19924;-56
2022/09/06 10:25:41;;;;;;;;;;;18.30;99.90;;;;;;5085565;28;19932;-57
2022/09/06 10:28:13;;;;;;;;;;;18.30;99.90;;;;;;5086679;28;19924;-58
2022/09/06 10:30:59;;;;;;;;;;;18.30;99.90;;;;;;5071089;28;19932;-58
2022/09/06 10:33:39;;;;;;;;;;;18.40;99.90;;;;;;5070977;28;19928;-58
2022/09/06 10:36:07;;;;;;;;;;;18.50;99.90;;;;;;5069821;28;19924;-57
2022/09/06 10:39:00;;;;;;;;;;;18.50;99.90;;;;;;5082596;28;19924;-58
2022/09/06 10:41:41;;;;;;;;;;;18.50;99.90;;;;;;5094267;28;19928;-57
2022/09/06 10:44:17;;;;;;;;;;;18.50;99.90;;;;;;5110179;28;19931;-57
2022/09/06 10:46:45;;;;;;;;;;;18.60;99.90;;;;;;5110409;28;19923;-58
2022/09/06 10:49:16;;;;;;;;;;;18.60;99.90;;;;;;5080316;28;19928;-58
2022/09/06 10:51:51;;;;;;;;;;;18.70;99.90;;;;;;5069705;28;20372;-58
2022/09/06 10:54:22;;;;;;;;;;;18.80;99.90;;;;;;5075703;28;19931;-58
2022/09/06 10:56:49;;;;;;;;;;;18.90;99.90;;;;;;5070019;28;19924;-58
2022/09/06 10:59:23;;;;;;;;;;;18.90;99.90;;;;;;5086902;28;19931;-57
2022/09/06 11:02:21;;;;;;;;;;;19.00;99.90;;;;;;5085834;28;19931;-58
2022/09/06 11:04:49;;;;;;;;;;;19.00;99.90;;;;;;5107673;28;19931;-58
2022/09/06 11:07:40;;;;;;;;;;;19.00;99.90;;;;;;5104654;28;19924;-58
2022/09/06 11:10:19;;;;;;;;;;;18.80;99.90;;;;;;5089307;28;19924;-58
2022/09/06 11:12:56;;;;;;;;;;;18.70;99.90;;;;;;5107247;28;19930;-57
2022/09/06 11:15:25;;;;;;;;;;;18.50;99.90;;;;;;5093199;28;19924;-58
2022/09/06 11:17:58;;;;;;;;;;;18.40;99.90;;;;;;5082296;28;19924;-57
2022/09/06 11:20:34;;;;;;;;;;;18.40;99.90;;;;;;5070071;28;19932;-58
2022/09/06 11:23:02;;;;;;;;;;;18.30;99.90;;;;;;5086695;28;20294;-58
2022/09/06 11:25:41;;;;;;;;;;;18.30;99.90;;;;;;5070190;28;19924;-57
2022/09/06 11:28:12;;;;;;;;;;;18.40;99.90;;;;;;5091093;28;19925;-57
2022/09/06 11:30:43;;;;;;;;;;;18.50;99.90;;;;;;5088930;28;19924;-58
2022/09/06 11:33:11;;;;;;;;;;;18.60;99.90;;;;;;5088197;28;19924;-57
2022/09/06 11:35:39;;;;;;;;;;;18.70;99.90;;;;;;5076319;28;20704;-57
2022/09/06 11:38:13;;;;;;;;;;;18.80;99.90;;;;;;5077451;28;19928;-58
2022/09/06 11:40:42;;;;;;;;;;;18.90;99.90;;;;;;5081584;28;19925;-58
2022/09/06 11:43:12;;;;;;;;;;;19.10;99.90;;;;;;5086163;28;20334;-57
2022/09/06 11:45:50;;;;;;;;;;;19.20;99.90;;;;;;5078531;28;19931;-58
2022/09/06 11:48:38;;;;;;;;;;;19.30;99.90;;;;;;5087732;28;19924;-57
2022/09/06 11:51:09;;;;;;;;;;;19.50;99.90;;;;;;5079746;28;19931;-58
2022/09/06 11:53:49;;;;;;;;;;;19.60;99.90;;;;;;5081396;28;19931;-56
2022/09/06 11:56:32;;;;;;;;;;;19.70;99.90;;;;;;5083289;28;19926;-58
2022/09/06 11:59:11;;;;;;;;;;;19.80;99.90;;;;;;5084484;28;19924;-57
2022/09/06 12:01:39;;;;;;;;;;;19.90;99.90;;;;;;5088815;28;19924;-58
2022/09/06 12:04:07;;;;;;;;;;;19.90;99.90;;;;;;5072490;28;19924;-57
2022/09/06 12:07:02;;;;;;;;;;;20.10;99.90;;;;;;5076881;28;19935;-58
2022/09/06 12:09:29;;;;;;;;;;;20.20;99.90;;;;;;5069504;28;19925;-58
2022/09/06 12:11:58;;;;;;;;;;;20.10;99.90;;;;;;5078038;28;20327;-57
2022/09/06 12:14:39;;;;;;;;;;;20.00;99.90;;;;;;5081959;28;20384;-57
2022/09/06 12:17:07;;;;;;;;;;;20.20;99.90;;;;;;5071693;28;19999;-57
2022/09/06 12:19:44;;;;;;;;;;;20.60;99.90;;;;;;5081323;28;19932;-61
2022/09/06 12:22:31;;;;;;;;;;;20.90;99.90;;;;;;5072630;28;19928;-58
2022/09/06 12:25:06;;;;;;;;;;;21.10;99.90;;;;;;5086598;28;19935;-59
2022/09/06 12:27:36;;;;;;;;;;;21.30;99.90;;;;;;5073797;28;19928;-58
2022/09/06 12:30:07;;;;;;;;;;;21.20;99.90;;;;;;5087955;28;19925;-59
2022/09/06 12:32:37;;;;;;;;;;;21.00;99.90;;;;;;5075600;28;19925;-58
2022/09/06 12:35:11;;;;;;;;;;;20.90;99.90;;;;;;5089170;28;20296;-58
2022/09/06 12:38:00;;;;;;;;;;;20.70;99.90;;;;;;5092225;28;19928;-57
2022/09/06 12:40:29;;;;;;;;;;;20.50;99.90;;;;;;5092391;28;19943;-57
2022/09/06 12:42:57;;;;;;;;;;;20.50;99.90;;;;;;5086274;28;19947;-58
2022/09/06 12:45:25;;;;;;;;;;;20.40;99.90;;;;;;5092278;28;19923;-58
2022/09/06 12:48:07;;;;;;;;;;;20.50;99.90;;;;;;5092072;28;19924;-60
2022/09/06 12:50:35;;;;;;;;;;;20.80;99.90;;;;;;5092236;28;19924;-59
2022/09/06 12:53:15;;;;;;;;;;;21.30;99.90;;;;;;5092242;28;19951;-58
2022/09/06 12:55:44;;;;;;;;;;;22.10;99.90;;;;;;5112627;28;19938;-58
2022/09/06 12:58:12;;;;;;;;;;;22.40;99.90;;;;;;5088416;28;19961;-59
2022/09/06 13:00:41;;;;;;;;;;;22.30;99.90;;;;;;5084072;28;19931;-59
2022/09/06 13:03:09;;;;;;;;;;;22.00;99.90;;;;;;5090166;28;19929;-59
2022/09/06 13:05:40;;;;;;;;;;;21.60;99.90;;;;;;5092060;28;19935;-58
2022/09/06 13:08:12;;;;;;;;;;;21.30;99.90;;;;;;5088553;28;19931;-59
2022/09/06 13:10:41;;;;;;;;;;;21.10;99.90;;;;;;5090814;28;19924;-59
2022/09/06 13:13:09;;;;;;;;;;;21.10;99.90;;;;;;5102864;28;19924;-59
2022/09/06 13:15:36;;;;;;;;;;;21.40;99.90;;;;;;5091791;28;19924;-59
2022/09/06 13:18:19;;;;;;;;;;;21.80;99.90;;;;;;5085443;28;19928;-58
2022/09/06 13:21:01;;;;;;;;;;;22.30;99.90;;;;;;5083968;28;19932;-60
2022/09/06 13:23:30;;;;;;;;;;;22.80;99.90;;;;;;5076108;28;19924;-60
2022/09/06 13:25:57;;;;;;;;;;;23.10;99.90;;;;;;5091197;28;19924;-59
2022/09/06 13:28:26;;;;;;;;;;;23.10;99.90;;;;;;5074740;28;19931;-59
2022/09/06 13:31:20;;;;;;;;;;;22.90;99.90;;;;;;5073025;28;19924;-59
2022/09/06 13:33:55;;;;;;;;;;;22.70;99.90;;;;;;5084632;28;19924;-60
2022/09/06 13:36:26;;;;;;;;;;;22.50;99.90;;;;;;5079361;28;19931;-59
2022/09/06 13:38:54;;;;;;;;;;;22.60;99.90;;;;;;5074692;28;19925;-59
2022/09/06 13:41:25;;;;;;;;;;;22.90;99.90;;;;;;5087279;28;19935;-59
2022/09/06 13:43:59;;;;;;;;;;;23.30;99.90;;;;;;5080269;28;19928;-60
2022/09/06 13:46:27;;;;;;;;;;;23.40;99.90;;;;;;5079984;28;19935;-59
2022/09/06 13:48:55;;;;;;;;;;;23.10;99.90;;;;;;5072063;28;19924;-59
2022/09/06 13:51:22;;;;;;;;;;;22.90;99.90;;;;;;5071578;28;20323;-60
2022/09/06 13:53:50;;;;;;;;;;;22.90;99.90;;;;;;5075688;28;19939;-60
2022/09/06 13:56:17;;;;;;;;;;;23.30;99.90;;;;;;5071497;28;19928;-58
2022/09/06 13:58:45;;;;;;;;;;;23.70;99.60;;;;;;5084061;28;20287;-58
2022/09/06 14:01:13;;;;;;;;;;;23.80;97.80;;;;;;5070548;28;19931;-59
2022/09/06 14:03:41;;;;;;;;;;;23.60;97.50;;;;;;5077509;28;19935;-60
2022/09/06 14:06:08;;;;;;;;;;;23.30;97.70;;;;;;5079093;28;19931;-61
2022/09/06 14:08:38;;;;;;;;;;;23.00;98.80;;;;;;5072006;28;20311;-61
2022/09/06 14:11:25;;;;;;;;;;;22.80;99.50;;;;;;5082999;28;19924;-60
2022/09/06 14:13:52;;;;;;;;;;;22.70;99.80;;;;;;5086561;28;19932;-62
2022/09/06 14:16:20;;;;;;;;;;;22.60;99.00;;;;;;5070074;28;19931;-61
2022/09/06 14:18:49;;;;;;;;;;;22.50;98.70;;;;;;5070769;28;19924;-61
2022/09/06 14:21:16;;;;;;;;;;;22.40;98.40;;;;;;5076423;28;21908;-61
2022/09/06 14:23:47;;;;;;;;;;;22.30;99.40;;;;;;5078616;28;19928;-60
2022/09/06 14:26:15;;;;;;;;;;;22.40;99.30;;;;;;5089950;28;19931;-61
2022/09/06 14:28:42;;;;;;;;;;;22.40;99.40;;;;;;5084942;28;19935;-59
2022/09/06 14:31:11;;;;;;;;;;;22.40;99.50;;;;;;5084040;28;19943;-60
2022/09/06 14:33:40;;;;;;;;;;;22.30;99.60;;;;;;5070214;28;19928;-58
2022/09/06 14:36:09;;;;;;;;;;;22.20;99.60;;;;;;5069830;28;19932;-59
2022/09/06 14:38:37;;;;;;;;;;;21.90;99.10;;;;;;5072098;28;19935;-58